Time;durP1;ratioP1;P1;durP2;ratioP2;P2;SDS_P1;SDS_P2;PMS_P1;PMS_P2;Temp;Humidity;BMP_temperature;BMP_pressure;BME280_temperature;BME280_humidity;BME280_pressure;Samples;Min_cycle;Max_cycle;Signal;HPM_P1;HPM_P2
2023/07/17 00:01:28;;;;;;;7.60;5.43;;;;;;;;;;5053179;28;20063;-66
2023/07/17 00:03:53;;;;;;;6.07;4.03;;;;;;;;;;5070654;28;20439;-67
2023/07/17 00:06:18;;;;;;;4.30;3.28;;;;;;;;;;5069169;28;20086;-67
2023/07/17 00:08:44;;;;;;;8.40;3.97;;;;;;;;;;5070277;28;20104;-67
2023/07/17 00:11:09;;;;;;;10.02;4.53;;;;;;;;;;5068742;28;20027;-66
2023/07/17 00:13:34;;;;;;;6.37;3.30;;;;;;;;;;5063866;28;20056;-67
2023/07/17 00:15:59;;;;;;;7.38;3.15;;;;;;;;;;5029757;28;20021;-62
2023/07/17 00:18:24;;;;;;;6.47;3.67;;;;;;;;;;5056041;28;20032;-67
2023/07/17 00:20:49;;;;;;;5.80;3.05;;;;;;;;;;5070707;28;20024;-67
2023/07/17 00:23:15;;;;;;;4.78;3.58;;;;;;;;;;5068472;28;20033;-67
2023/07/17 00:25:40;;;;;;;5.73;4.03;;;;;;;;;;5068139;28;20074;-67
2023/07/17 00:28:05;;;;;;;5.97;3.67;;;;;;;;;;5068961;28;20511;-67
2023/07/17 00:30:30;;;;;;;9.30;4.78;;;;;;;;;;5070547;28;20101;-67
2023/07/17 00:32:55;;;;;;;8.85;4.20;;;;;;;;;;5068666;28;20043;-67
2023/07/17 00:35:20;;;;;;;10.38;4.18;;;;;;;;;;5073764;28;20440;-67
2023/07/17 00:37:46;;;;;;;10.57;4.43;;;;;;;;;;5073030;28;20040;-67
2023/07/17 00:40:11;;;;;;;11.15;4.70;;;;;;;;;;5073884;28;20447;-67
2023/07/17 00:42:36;;;;;;;4.63;3.72;;;;;;;;;;5072925;28;20036;-67
2023/07/17 00:45:02;;;;;;;5.22;3.42;;;;;;;;;;5073945;28;20059;-67
2023/07/17 00:47:27;;;;;;;6.57;4.03;;;;;;;;;;5070827;28;20029;-67
2023/07/17 00:49:53;;;;;;;10.00;4.70;;;;;;;;;;5054434;28;20029;-67
2023/07/17 00:52:19;;;;;;;9.50;5.07;;;;;;;;;;5052564;28;20052;-67
2023/07/17 00:54:44;;;;;;;7.93;4.82;;;;;;;;;;5053751;28;20048;-67
2023/07/17 00:57:11;;;;;;;6.55;3.30;;;;;;;;;;5052227;28;20086;-67
2023/07/17 00:59:36;;;;;;;5.97;3.63;;;;;;;;;;5054030;28;20101;-67
2023/07/17 01:02:01;;;;;;;8.02;4.90;;;;;;;;;;5060329;28;20120;-66
2023/07/17 01:04:27;;;;;;;6.33;4.53;;;;;;;;;;5073791;28;20052;-66
2023/07/17 01:06:52;;;;;;;7.57;4.57;;;;;;;;;;5051931;28;20505;-66
2023/07/17 01:09:21;;;;;;;19.03;5.93;;;;;;;;;;5055095;28;20017;-66
2023/07/17 01:11:46;;;;;;;7.47;3.40;;;;;;;;;;5072463;28;20041;-66
2023/07/17 01:14:18;;;;;;;7.93;4.60;;;;;;;;;;5073512;28;20031;-67
2023/07/17 01:16:44;;;;;;;5.88;4.28;;;;;;;;;;5071857;28;20033;-66
2023/07/17 01:19:09;;;;;;;4.95;2.97;;;;;;;;;;5073461;28;20024;-66
2023/07/17 01:21:35;;;;;;;4.87;3.47;;;;;;;;;;5071866;28;20395;-67
2023/07/17 01:24:00;;;;;;;6.80;3.90;;;;;;;;;;5072879;28;20104;-67
2023/07/17 01:26:25;;;;;;;7.47;5.17;;;;;;;;;;5072341;28;20028;-65
2023/07/17 01:28:51;;;;;;;9.35;4.53;;;;;;;;;;5059106;28;20435;-65
2023/07/17 01:31:16;;;;;;;11.87;3.80;;;;;;;;;;5053650;28;20095;-65
2023/07/17 01:33:41;;;;;;;4.97;3.85;;;;;;;;;;5070608;28;20095;-65
2023/07/17 01:36:07;;;;;;;5.90;4.35;;;;;;;;;;5032452;28;20103;-64
2023/07/17 01:38:32;;;;;;;8.73;4.80;;;;;;;;;;5052873;28;20017;-65
2023/07/17 01:40:57;;;;;;;7.20;4.00;;;;;;;;;;5057018;28;20020;-65
2023/07/17 01:43:23;;;;;;;5.32;4.03;;;;;;;;;;5071421;28;20082;-65
2023/07/17 01:45:48;;;;;;;9.35;3.75;;;;;;;;;;5071732;28;20107;-65
2023/07/17 01:48:17;;;;;;;8.60;4.70;;;;;;;;;;5071397;28;20025;-65
2023/07/17 01:50:42;;;;;;;4.95;3.83;;;;;;;;;;5071613;28;20025;-65
2023/07/17 01:53:07;;;;;;;8.35;4.90;;;;;;;;;;5070662;28;20132;-65
2023/07/17 01:55:33;;;;;;;8.40;4.40;;;;;;;;;;5073240;28;20543;-65
2023/07/17 01:57:58;;;;;;;5.60;4.03;;;;;;;;;;5071172;28;21005;-65
2023/07/17 02:00:24;;;;;;;11.20;6.10;;;;;;;;;;5066572;28;20036;-65
2023/07/17 02:02:49;;;;;;;9.23;4.33;;;;;;;;;;5066090;28;20036;-66
2023/07/17 02:05:14;;;;;;;10.13;4.68;;;;;;;;;;5072675;28;20020;-68
2023/07/17 02:07:39;;;;;;;6.60;3.90;;;;;;;;;;5051025;28;20037;-69
2023/07/17 02:10:05;;;;;;;12.30;3.77;;;;;;;;;;5032490;28;20029;-69
2023/07/17 02:12:30;;;;;;;7.70;5.25;;;;;;;;;;5056873;28;20059;-69
2023/07/17 02:14:55;;;;;;;8.20;4.82;;;;;;;;;;5071998;28;20104;-68
2023/07/17 02:17:20;;;;;;;9.63;4.73;;;;;;;;;;5071054;28;20078;-68
2023/07/17 02:19:45;;;;;;;11.27;4.00;;;;;;;;;;5072257;28;20020;-68
2023/07/17 02:22:10;;;;;;;9.67;5.20;;;;;;;;;;5070495;28;20041;-69
2023/07/17 02:24:36;;;;;;;8.00;3.80;;;;;;;;;;5072431;28;20024;-68
2023/07/17 02:27:02;;;;;;;4.83;3.70;;;;;;;;;;5070353;28;20459;-67
2023/07/17 02:29:27;;;;;;;11.93;5.30;;;;;;;;;;5071753;28;20004;-67
2023/07/17 02:31:52;;;;;;;7.35;5.57;;;;;;;;;;5070851;28;20449;-66
2023/07/17 02:34:18;;;;;;;6.65;4.35;;;;;;;;;;5072118;28;20059;-66
2023/07/17 02:36:43;;;;;;;10.03;4.93;;;;;;;;;;5070166;28;20052;-66
2023/07/17 02:39:08;;;;;;;10.63;3.97;;;;;;;;;;5071820;28;20407;-66
2023/07/17 02:41:33;;;;;;;14.93;6.00;;;;;;;;;;5062115;28;20037;-66
2023/07/17 02:43:58;;;;;;;10.35;7.15;;;;;;;;;;5055956;28;20017;-66
2023/07/17 02:46:23;;;;;;;11.05;6.65;;;;;;;;;;5070245;28;20033;-67
2023/07/17 02:48:49;;;;;;;10.27;4.80;;;;;;;;;;5071853;28;20017;-67
2023/07/17 02:51:14;;;;;;;10.83;5.30;;;;;;;;;;5070450;28;20479;-67
2023/07/17 02:53:39;;;;;;;7.27;5.77;;;;;;;;;;5071512;28;20101;-66
2023/07/17 02:56:04;;;;;;;7.35;3.63;;;;;;;;;;5069878;28;20368;-65
2023/07/17 02:58:29;;;;;;;9.33;6.40;;;;;;;;;;5056458;28;20023;-66
2023/07/17 03:00:54;;;;;;;9.67;4.47;;;;;;;;;;5051235;28;20431;-65
2023/07/17 03:03:19;;;;;;;9.95;4.72;;;;;;;;;;5050124;28;20041;-67
2023/07/17 03:05:45;;;;;;;7.23;4.57;;;;;;;;;;5050176;28;20490;-66
2023/07/17 03:08:10;;;;;;;12.53;6.03;;;;;;;;;;5040804;28;20060;-67
2023/07/17 03:10:35;;;;;;;7.43;4.47;;;;;;;;;;5031556;28;20072;-68
2023/07/17 03:13:00;;;;;;;13.80;5.72;;;;;;;;;;5046252;28;20067;-67
2023/07/17 03:15:25;;;;;;;9.53;5.57;;;;;;;;;;5068749;28;20546;-68
2023/07/17 03:17:51;;;;;;;10.37;4.93;;;;;;;;;;5069650;28;20573;-68
2023/07/17 03:20:17;;;;;;;12.95;7.00;;;;;;;;;;5071235;28;20422;-67
2023/07/17 03:22:42;;;;;;;10.15;6.10;;;;;;;;;;5069483;28;20033;-68
2023/07/17 03:25:07;;;;;;;12.67;6.77;;;;;;;;;;5070752;28;20016;-67
2023/07/17 03:27:33;;;;;;;7.80;5.25;;;;;;;;;;5069816;28;20488;-66
2023/07/17 03:29:58;;;;;;;10.00;6.35;;;;;;;;;;5070178;28;20547;-66
2023/07/17 03:32:23;;;;;;;9.97;6.30;;;;;;;;;;5069970;28;20036;-66
2023/07/17 03:34:48;;;;;;;11.48;4.95;;;;;;;;;;5070965;28;20486;-66
2023/07/17 03:37:13;;;;;;;6.07;5.47;;;;;;;;;;5069119;28;20039;-66
2023/07/17 03:39:38;;;;;;;10.45;5.10;;;;;;;;;;5059776;28;20056;-66
2023/07/17 03:42:10;;;;;;;10.27;6.07;;;;;;;;;;5049330;28;20037;-66
2023/07/17 03:44:35;;;;;;;9.82;6.18;;;;;;;;;;5055749;28;20474;-66
2023/07/17 03:47:00;;;;;;;11.07;5.03;;;;;;;;;;5057655;28;20499;-66
2023/07/17 03:49:25;;;;;;;5.57;4.22;;;;;;;;;;5064772;28;20028;-68
2023/07/17 03:51:50;;;;;;;10.25;6.00;;;;;;;;;;5055354;28;20107;-67
2023/07/17 03:54:15;;;;;;;7.55;6.20;;;;;;;;;;5070531;28;20131;-68
2023/07/17 03:56:40;;;;;;;13.05;7.10;;;;;;;;;;5069613;28;20039;-67
2023/07/17 03:59:06;;;;;;;9.02;5.75;;;;;;;;;;5070020;28;20048;-68
2023/07/17 04:01:31;;;;;;;8.40;6.17;;;;;;;;;;5069598;28;20058;-68
2023/07/17 04:03:56;;;;;;;10.57;6.28;;;;;;;;;;5070759;28;20458;-66
2023/07/17 04:06:22;;;;;;;18.00;6.03;;;;;;;;;;5069157;28;20040;-66
2023/07/17 04:08:47;;;;;;;10.40;6.77;;;;;;;;;;5069748;28;20103;-66
2023/07/17 04:11:14;;;;;;;16.65;9.27;;;;;;;;;;5069101;28;20017;-66
2023/07/17 04:13:39;;;;;;;12.18;6.07;;;;;;;;;;5069225;28;20439;-66
2023/07/17 04:16:05;;;;;;;9.50;6.23;;;;;;;;;;5068899;28;20052;-65
2023/07/17 04:18:30;;;;;;;17.13;7.38;;;;;;;;;;5048130;28;20452;-66
2023/07/17 04:20:55;;;;;;;8.68;6.22;;;;;;;;;;5068416;28;20033;-69
2023/07/17 04:23:20;;;;;;;9.32;6.40;;;;;;;;;;5059643;28;20058;-70
2023/07/17 04:25:45;;;;;;;8.23;6.37;;;;;;;;;;5061053;28;20047;-69
2023/07/17 04:28:10;;;;;;;8.87;5.57;;;;;;;;;;5054322;28;20031;-69
2023/07/17 04:30:36;;;;;;;8.90;5.00;;;;;;;;;;5049836;28;20073;-71
2023/07/17 04:33:01;;;;;;;10.55;6.15;;;;;;;;;;5057766;28;20128;-70
2023/07/17 04:35:26;;;;;;;14.40;6.72;;;;;;;;;;5056419;28;20476;-67
2023/07/17 04:37:54;;;;;;;7.27;5.63;;;;;;;;;;5048937;28;20041;-67
2023/07/17 04:40:19;;;;;;;13.45;5.45;;;;;;;;;;5069465;28;20065;-70
2023/07/17 04:42:44;;;;;;;13.32;5.07;;;;;;;;;;5067101;28;20028;-66
2023/07/17 04:45:11;;;;;;;16.83;6.38;;;;;;;;;;5068385;28;20012;-63
2023/07/17 04:47:36;;;;;;;11.52;4.57;;;;;;;;;;5068357;28;20033;-64
2023/07/17 04:50:01;;;;;;;8.05;5.90;;;;;;;;;;5070013;28;20150;-64
2023/07/17 04:52:27;;;;;;;10.20;5.87;;;;;;;;;;5068376;28;20029;-64
2023/07/17 04:54:52;;;;;;;7.70;5.13;;;;;;;;;;5070543;28;20506;-63
2023/07/17 04:57:17;;;;;;;7.73;5.47;;;;;;;;;;5068185;28;20465;-64
2023/07/17 04:59:42;;;;;;;9.30;4.78;;;;;;;;;;5070313;28;20024;-63
2023/07/17 05:02:07;;;;;;;9.00;3.88;;;;;;;;;;5068531;28;20392;-64
2023/07/17 05:04:32;;;;;;;10.07;4.70;;;;;;;;;;5070589;28;20032;-64
2023/07/17 05:06:58;;;;;;;7.77;4.63;;;;;;;;;;5068219;28;20031;-64
2023/07/17 05:09:23;;;;;;;8.02;5.32;;;;;;;;;;5068622;28;20440;-64
2023/07/17 05:11:49;;;;;;;8.80;5.05;;;;;;;;;;5068765;28;20028;-63
2023/07/17 05:14:15;;;;;;;15.52;5.13;;;;;;;;;;5069944;28;20017;-64
2023/07/17 05:16:40;;;;;;;11.93;5.17;;;;;;;;;;5068592;28;20111;-63
2023/07/17 05:19:05;;;;;;;10.60;5.60;;;;;;;;;;5070047;28;20462;-64
2023/07/17 05:21:32;;;;;;;21.27;8.97;;;;;;;;;;5072007;28;20040;-63
2023/07/17 05:23:57;;;;;;;9.35;3.78;;;;;;;;;;5073129;28;20021;-64
2023/07/17 05:26:22;;;;;;;10.50;5.20;;;;;;;;;;5072468;28;20093;-64
2023/07/17 05:28:48;;;;;;;8.60;5.03;;;;;;;;;;5072337;28;20013;-64
2023/07/17 05:31:13;;;;;;;9.95;5.88;;;;;;;;;;5070113;28;20019;-64
2023/07/17 05:33:38;;;;;;;14.52;5.32;;;;;;;;;;5072677;28;20028;-64
2023/07/17 05:36:03;;;;;;;10.85;4.82;;;;;;;;;;5070057;28;20562;-64
2023/07/17 05:38:29;;;;;;;15.27;5.40;;;;;;;;;;5072201;28;20013;-64
2023/07/17 05:40:58;;;;;;;9.87;5.63;;;;;;;;;;5072928;28;20422;-63
2023/07/17 05:43:23;;;;;;;8.80;5.47;;;;;;;;;;5050941;28;21098;-64
2023/07/17 05:45:48;;;;;;;7.85;3.65;;;;;;;;;;5044561;28;20021;-64
2023/07/17 05:48:13;;;;;;;6.72;5.18;;;;;;;;;;5051383;28;20515;-64
2023/07/17 05:50:39;;;;;;;6.00;4.05;;;;;;;;;;5051858;28;20021;-64
2023/07/17 05:53:04;;;;;;;15.32;5.57;;;;;;;;;;5049940;28;20056;-64
2023/07/17 05:55:29;;;;;;;10.90;5.47;;;;;;;;;;5051798;28;20017;-64
2023/07/17 05:57:55;;;;;;;10.18;5.20;;;;;;;;;;5051294;28;20116;-64
2023/07/17 06:00:20;;;;;;;8.80;4.17;;;;;;;;;;5052735;28;20032;-64
2023/07/17 06:02:45;;;;;;;8.15;4.70;;;;;;;;;;5050139;28;20419;-64
2023/07/17 06:05:10;;;;;;;12.37;5.30;;;;;;;;;;5052195;28;20416;-64
2023/07/17 06:07:36;;;;;;;19.30;7.83;;;;;;;;;;5064868;28;20094;-64
2023/07/17 06:10:01;;;;;;;16.15;5.75;;;;;;;;;;5072472;28;20418;-64
2023/07/17 06:12:26;;;;;;;13.50;5.90;;;;;;;;;;5070260;28;20043;-64
2023/07/17 06:14:52;;;;;;;11.93;6.00;;;;;;;;;;5072666;28;20051;-64
2023/07/17 06:17:17;;;;;;;8.07;4.30;;;;;;;;;;5070958;28;20510;-64
2023/07/17 06:19:42;;;;;;;8.73;5.47;;;;;;;;;;5072233;28;20104;-64
2023/07/17 06:22:07;;;;;;;13.35;6.68;;;;;;;;;;5065270;28;20039;-64
2023/07/17 06:24:33;;;;;;;12.27;5.80;;;;;;;;;;5060347;28;20021;-64
2023/07/17 06:26:59;;;;;;;8.32;5.07;;;;;;;;;;5050454;28;20029;-64
2023/07/17 06:29:25;;;;;;;19.10;8.32;;;;;;;;;;5050803;28;20036;-64
2023/07/17 06:31:50;;;;;;;8.90;5.60;;;;;;;;;;5050300;28;20459;-64
2023/07/17 06:34:15;;;;;;;9.90;4.93;;;;;;;;;;5051980;28;20656;-64
2023/07/17 06:36:41;;;;;;;18.85;6.88;;;;;;;;;;5050605;28;20499;-65
2023/07/17 06:39:07;;;;;;;14.10;6.93;;;;;;;;;;5052182;28;20017;-64
2023/07/17 06:41:32;;;;;;;11.98;6.43;;;;;;;;;;5050415;28;20029;-64
2023/07/17 06:43:57;;;;;;;8.75;5.28;;;;;;;;;;5051984;28;20044;-64
2023/07/17 06:46:23;;;;;;;12.43;6.03;;;;;;;;;;5050759;28;20475;-64
2023/07/17 06:48:48;;;;;;;11.30;6.30;;;;;;;;;;5051417;28;20064;-64
2023/07/17 06:51:14;;;;;;;11.38;5.97;;;;;;;;;;5050327;28;20013;-64
2023/07/17 06:53:39;;;;;;;22.38;6.95;;;;;;;;;;5051849;28;20104;-64
2023/07/17 06:56:04;;;;;;;48.28;18.63;;;;;;;;;;5050140;28;20645;-64
2023/07/17 06:58:29;;;;;;;12.07;6.00;;;;;;;;;;5052011;28;20454;-64
2023/07/17 07:00:58;;;;;;;12.85;6.13;;;;;;;;;;5052136;28;20057;-64
2023/07/17 07:03:24;;;;;;;19.60;8.48;;;;;;;;;;5049535;28;20041;-64
2023/07/17 07:05:56;;;;;;;13.80;6.93;;;;;;;;;;5051555;28;20025;-64
2023/07/17 07:08:22;;;;;;;9.07;5.03;;;;;;;;;;5049852;28;20029;-64
2023/07/17 07:10:49;;;;;;;11.82;6.18;;;;;;;;;;5051137;28;20025;-64
2023/07/17 07:13:14;;;;;;;20.80;7.00;;;;;;;;;;5049934;28;20044;-64
2023/07/17 07:15:39;;;;;;;9.80;5.97;;;;;;;;;;5051907;28;20109;-64
2023/07/17 07:18:05;;;;;;;20.33;7.10;;;;;;;;;;5049402;28;20484;-64
2023/07/17 07:20:30;;;;;;;19.40;8.63;;;;;;;;;;5051322;28;20025;-64
2023/07/17 07:22:55;;;;;;;12.98;5.82;;;;;;;;;;5049677;28;20095;-64
2023/07/17 07:25:20;;;;;;;19.53;8.67;;;;;;;;;;5050820;28;20028;-64
2023/07/17 07:27:45;;;;;;;20.48;8.68;;;;;;;;;;5049980;28;20024;-64
2023/07/17 07:30:11;;;;;;;13.38;7.00;;;;;;;;;;5050762;28;20028;-64
2023/07/17 07:32:39;;;;;;;15.50;7.80;;;;;;;;;;5049502;28;20052;-64
2023/07/17 07:35:04;;;;;;;16.60;8.05;;;;;;;;;;5051054;28;20052;-64
2023/07/17 07:37:30;;;;;;;16.27;8.30;;;;;;;;;;5049689;28;20579;-64
2023/07/17 07:39:55;;;;;;;16.40;6.27;;;;;;;;;;5049875;28;20039;-64
2023/07/17 07:42:20;;;;;;;15.27;7.97;;;;;;;;;;5048802;28;20454;-64
2023/07/17 07:44:45;;;;;;;12.10;7.30;;;;;;;;;;5046687;28;20017;-64
2023/07/17 07:47:10;;;;;;;11.73;6.75;;;;;;;;;;5048482;28;20037;-64
2023/07/17 07:49:35;;;;;;;16.40;7.80;;;;;;;;;;5050090;28;20040;-65
2023/07/17 07:52:01;;;;;;;11.32;5.55;;;;;;;;;;5057973;28;20487;-64
2023/07/17 07:54:26;;;;;;;13.95;8.05;;;;;;;;;;5070707;28;20028;-64
2023/07/17 07:56:51;;;;;;;12.93;8.50;;;;;;;;;;5068936;28;20043;-64
2023/07/17 07:59:16;;;;;;;26.53;9.43;;;;;;;;;;5069885;28;20032;-64
2023/07/17 08:01:41;;;;;;;11.40;6.00;;;;;;;;;;5069240;28;20037;-64
2023/07/17 08:04:06;;;;;;;19.50;9.73;;;;;;;;;;5070367;28;20021;-64
2023/07/17 08:06:31;;;;;;;17.83;8.17;;;;;;;;;;5069429;28;20063;-65
2023/07/17 08:08:57;;;;;;;16.37;9.10;;;;;;;;;;5068831;28;20427;-65
2023/07/17 08:11:22;;;;;;;18.83;8.80;;;;;;;;;;5069146;28;20041;-65
2023/07/17 08:13:47;;;;;;;14.35;7.28;;;;;;;;;;5069316;28;20017;-65
2023/07/17 08:16:12;;;;;;;19.57;8.57;;;;;;;;;;5068703;28;20103;-66
2023/07/17 08:18:37;;;;;;;12.70;7.55;;;;;;;;;;5070287;28;20415;-65
2023/07/17 08:21:03;;;;;;;12.15;6.30;;;;;;;;;;5068837;28;20025;-65
2023/07/17 08:23:28;;;;;;;15.07;6.55;;;;;;;;;;5069283;28;20387;-66
2023/07/17 08:25:53;;;;;;;11.53;6.53;;;;;;;;;;5070648;28;20020;-65
2023/07/17 08:28:19;;;;;;;19.57;9.10;;;;;;;;;;5068965;28;20499;-66
2023/07/17 08:30:44;;;;;;;16.13;7.95;;;;;;;;;;5070490;28;20033;-65
2023/07/17 08:33:11;;;;;;;17.47;7.97;;;;;;;;;;5068582;28;20037;-66
2023/07/17 08:35:36;;;;;;;16.30;7.05;;;;;;;;;;5070494;28;20052;-66
2023/07/17 08:38:01;;;;;;;14.98;6.85;;;;;;;;;;5068998;28;20504;-66
2023/07/17 08:40:26;;;;;;;15.30;6.45;;;;;;;;;;5070194;28;20036;-66
2023/07/17 08:42:52;;;;;;;11.67;5.93;;;;;;;;;;5068893;28;20033;-65
2023/07/17 08:45:19;;;;;;;12.43;5.93;;;;;;;;;;5070213;28;20031;-66
2023/07/17 08:47:46;;;;;;;10.77;4.53;;;;;;;;;;5068684;28;20480;-66
2023/07/17 08:50:11;;;;;;;13.93;6.75;;;;;;;;;;5070216;28;20009;-66
2023/07/17 08:52:36;;;;;;;15.68;8.25;;;;;;;;;;5068948;28;20051;-66
2023/07/17 08:55:02;;;;;;;11.43;5.53;;;;;;;;;;5071352;28;20415;-66
2023/07/17 08:57:30;;;;;;;14.00;7.32;;;;;;;;;;5072754;28;20047;-66
2023/07/17 08:59:55;;;;;;;8.35;5.47;;;;;;;;;;5074207;28;20044;-66
2023/07/17 09:02:20;;;;;;;12.38;7.07;;;;;;;;;;5071413;28;20101;-66
2023/07/17 09:04:45;;;;;;;12.43;6.37;;;;;;;;;;5070685;28;20063;-66
2023/07/17 09:07:11;;;;;;;8.57;4.93;;;;;;;;;;5072323;28;20028;-66
2023/07/17 09:09:36;;;;;;;12.97;6.37;;;;;;;;;;5073505;28;20020;-66
2023/07/17 09:12:08;;;;;;;12.50;5.05;;;;;;;;;;5072214;28;20985;-66
2023/07/17 09:14:33;;;;;;;7.03;4.07;;;;;;;;;;5073885;28;20020;-66
2023/07/17 09:17:03;;;;;;;18.35;5.57;;;;;;;;;;5071992;28;20036;-66
2023/07/17 09:19:30;;;;;;;12.98;5.40;;;;;;;;;;5073641;28;20020;-66
2023/07/17 09:21:57;;;;;;;9.30;4.88;;;;;;;;;;5072420;28;20032;-66
2023/07/17 09:24:22;;;;;;;6.77;5.93;;;;;;;;;;5073269;28;20059;-66
2023/07/17 09:26:54;;;;;;;9.63;4.63;;;;;;;;;;5072202;28;20474;-66
2023/07/17 09:29:21;;;;;;;6.22;4.32;;;;;;;;;;5073233;28;20468;-66
2023/07/17 09:31:46;;;;;;;4.70;3.33;;;;;;;;;;5071904;28;20698;-66
2023/07/17 09:34:13;;;;;;;13.43;4.20;;;;;;;;;;5073348;28;20020;-67
2023/07/17 09:36:38;;;;;;;8.10;3.58;;;;;;;;;;5069518;28;20087;-66
2023/07/17 09:39:05;;;;;;;6.40;3.67;;;;;;;;;;5070843;28;20025;-66
2023/07/17 09:41:30;;;;;;;9.23;3.43;;;;;;;;;;5071608;28;20044;-66
2023/07/17 09:44:05;;;;;;;4.07;3.67;;;;;;;;;;5071939;28;20020;-65
2023/07/17 09:46:39;;;;;;;8.60;4.30;;;;;;;;;;5071155;28;20032;-66
2023/07/17 09:49:06;;;;;;;6.88;3.35;;;;;;;;;;5073244;28;20379;-66
2023/07/17 09:51:32;;;;;;;12.10;6.03;;;;;;;;;;5072068;28;20053;-66
2023/07/17 09:54:00;;;;;;;9.18;3.53;;;;;;;;;;5070976;28;20066;-66
2023/07/17 09:56:25;;;;;;;;;;;;;;;;;;5072420;28;20517;-66
2023/07/17 09:58:51;;;;;;;6.22;3.70;;;;;;;;;;5073120;28;20367;-66
2023/07/17 10:01:22;;;;;;;6.30;3.55;;;;;;;;;;5070788;28;20020;-66
2023/07/17 10:03:47;;;;;;;6.00;2.80;;;;;;;;;;5072878;28;20028;-66
2023/07/17 10:06:13;;;;;;;8.43;3.65;;;;;;;;;;5070414;28;20062;-66
2023/07/17 10:08:40;;;;;;;8.60;4.18;;;;;;;;;;5072453;28;20020;-66
2023/07/17 10:11:05;;;;;;;8.05;4.00;;;;;;;;;;5070986;28;20013;-65
2023/07/17 10:13:30;;;;;;;5.45;4.28;;;;;;;;;;5072822;28;20016;-66
2023/07/17 10:15:57;;;;;;;7.20;3.83;;;;;;;;;;5071724;28;20052;-66
2023/07/17 10:18:23;;;;;;;11.13;5.05;;;;;;;;;;5071354;28;20036;-66
2023/07/17 10:20:52;;;;;;;7.30;4.40;;;;;;;;;;5072215;28;20583;-66
2023/07/17 10:23:22;;;;;;;7.18;3.38;;;;;;;;;;5070009;28;20056;-66
2023/07/17 10:25:48;;;;;;;7.63;3.97;;;;;;;;;;5071377;28;20549;-66
2023/07/17 10:28:13;;;;;;;16.38;4.47;;;;;;;;;;5070243;28;20060;-66
2023/07/17 10:30:38;;;;;;;8.20;4.47;;;;;;;;;;5072184;28;20029;-66
2023/07/17 10:33:11;;;;;;;8.10;4.97;;;;;;;;;;5070793;28;20032;-66
2023/07/17 10:35:46;;;;;;;9.77;4.90;;;;;;;;;;5072011;28;20051;-68
2023/07/17 10:38:12;;;;;;;6.70;3.13;;;;;;;;;;5070167;28;20035;-67
2023/07/17 10:40:38;;;;;;;5.57;3.72;;;;;;;;;;5070877;28;20447;-67
2023/07/17 10:43:14;;;;;;;8.68;3.88;;;;;;;;;;5070179;28;20055;-68
2023/07/17 10:45:39;;;;;;;10.57;4.03;;;;;;;;;;5071496;28;20019;-68
2023/07/17 10:48:05;;;;;;;5.17;3.43;;;;;;;;;;5070487;28;20108;-67
2023/07/17 10:50:30;;;;;;;11.27;4.13;;;;;;;;;;5070904;28;20502;-68
2023/07/17 10:53:00;;;;;;;14.23;4.15;;;;;;;;;;5052176;28;20381;-68
2023/07/17 10:55:27;;;;;;;4.95;3.20;;;;;;;;;;5052026;28;20052;-67
2023/07/17 10:57:53;;;;;;;7.30;3.22;;;;;;;;;;5050412;28;20060;-67
2023/07/17 11:00:18;;;;;;;8.98;4.38;;;;;;;;;;5051229;28;20028;-67
2023/07/17 11:02:43;;;;;;;7.30;3.23;;;;;;;;;;5050331;28;20041;-67
2023/07/17 11:05:09;;;;;;;6.43;2.47;;;;;;;;;;5051314;28;20033;-67
2023/07/17 11:07:34;;;;;;;7.73;2.90;;;;;;;;;;5049944;28;20349;-67
2023/07/17 11:09:59;;;;;;;6.18;3.05;;;;;;;;;;5051524;28;20052;-67
2023/07/17 11:12:25;;;;;;;6.45;3.38;;;;;;;;;;5049921;28;20392;-68
2023/07/17 11:14:53;;;;;;;5.83;2.93;;;;;;;;;;5051202;28;20032;-68
2023/07/17 11:17:18;;;;;;;;;;;;;;;;;;5050444;28;20451;-67
2023/07/17 11:19:44;;;;;;;7.32;3.45;;;;;;;;;;5051480;28;19912;-67
2023/07/17 11:22:09;;;;;;;7.78;3.85;;;;;;;;;;5049568;28;20523;-68
2023/07/17 11:24:34;;;;;;;7.95;2.85;;;;;;;;;;5051149;28;20029;-67
2023/07/17 11:27:00;;;;;;;9.90;3.73;;;;;;;;;;5049650;28;20029;-68
2023/07/17 11:29:25;;;;;;;6.43;4.23;;;;;;;;;;5051065;28;20024;-67
2023/07/17 11:31:57;;;;;;;7.60;3.70;;;;;;;;;;5049605;28;20033;-67
2023/07/17 11:34:22;;;;;;;9.30;3.53;;;;;;;;;;5051187;28;20506;-68
2023/07/17 11:36:48;;;;;;;6.17;3.17;;;;;;;;;;5047616;28;20179;-67
2023/07/17 11:39:23;;;;;;;3.43;3.07;;;;;;;;;;5050432;28;20482;-68
2023/07/17 11:41:50;;;;;;;7.47;3.75;;;;;;;;;;5045308;28;20033;-68
2023/07/17 11:44:25;;;;;;;4.68;2.40;;;;;;;;;;5030225;28;20030;-67
2023/07/17 11:46:57;;;;;;;3.08;1.83;;;;;;;;;;5036682;28;20453;-67
2023/07/17 11:49:26;;;;;;;3.60;1.80;;;;;;;;;;5050518;28;20092;-67
2023/07/17 11:51:51;;;;;;;4.72;2.25;;;;;;;;;;5041914;28;20038;-67
2023/07/17 11:54:16;;;;;;;2.05;1.40;;;;;;;;;;5037181;28;20025;-67
2023/07/17 11:56:42;;;;;;;3.13;1.53;;;;;;;;;;5055038;28;20122;-67
2023/07/17 11:59:17;;;;;;;4.00;3.05;;;;;;;;;;5069846;28;20031;-69
2023/07/17 12:01:42;;;;;;;1.67;1.52;;;;;;;;;;5069183;28;20051;-67
2023/07/17 12:04:26;;;;;;;3.42;1.42;;;;;;;;;;5070686;28;20012;-67
2023/07/17 12:06:55;;;;;;;2.00;1.42;;;;;;;;;;5069013;28;20149;-67
2023/07/17 12:09:20;;;;;;;2.83;1.95;;;;;;;;;;5070316;28;20021;-67
2023/07/17 12:11:46;;;;;;;1.35;1.08;;;;;;;;;;5067973;28;20509;-67
2023/07/17 12:14:14;;;;;;;1.65;1.10;;;;;;;;;;5070351;28;20499;-67
2023/07/17 12:16:40;;;;;;;1.92;1.48;;;;;;;;;;5067608;28;20043;-67
2023/07/17 12:19:05;;;;;;;2.05;1.77;;;;;;;;;;5070578;28;20021;-67
2023/07/17 12:21:30;;;;;;;1.40;1.27;;;;;;;;;;5069010;28;20526;-67
2023/07/17 12:23:55;;;;;;;2.93;1.13;;;;;;;;;;5070373;28;20496;-67
2023/07/17 12:26:21;;;;;;;2.70;1.85;;;;;;;;;;5068849;28;20036;-67
2023/07/17 12:28:46;;;;;;;4.03;1.75;;;;;;;;;;5070113;28;20559;-67
2023/07/17 12:31:11;;;;;;;1.58;1.35;;;;;;;;;;5066781;28;20020;-67
2023/07/17 12:33:36;;;;;;;2.97;2.13;;;;;;;;;;5073558;28;20375;-68
2023/07/17 12:36:02;;;;;;;11.23;1.85;;;;;;;;;;5071498;28;20123;-68
2023/07/17 12:38:27;;;;;;;4.03;1.40;;;;;;;;;;5054012;28;20017;-67
2023/07/17 12:40:52;;;;;;;3.40;2.00;;;;;;;;;;5054332;28;20013;-67
2023/07/17 12:43:17;;;;;;;2.00;1.73;;;;;;;;;;5052358;28;20041;-67
2023/07/17 12:45:42;;;;;;;5.80;2.93;;;;;;;;;;5053936;28;20487;-67
2023/07/17 12:48:09;;;;;;;5.10;2.67;;;;;;;;;;5052760;28;20462;-67
2023/07/17 12:50:34;;;;;;;4.38;2.05;;;;;;;;;;5054050;28;20051;-67
2023/07/17 12:52:59;;;;;;;8.73;3.97;;;;;;;;;;5051767;28;20116;-68
2023/07/17 12:55:24;;;;;;;5.60;2.63;;;;;;;;;;5054271;28;20043;-67
2023/07/17 12:57:50;;;;;;;3.33;2.20;;;;;;;;;;5052777;28;20041;-68
2023/07/17 13:00:15;;;;;;;6.20;2.38;;;;;;;;;;5053684;28;20024;-68
2023/07/17 13:02:40;;;;;;;2.95;2.35;;;;;;;;;;5052669;28;20044;-68
2023/07/17 13:05:06;;;;;;;10.05;2.90;;;;;;;;;;5053683;28;20024;-68
2023/07/17 13:07:31;;;;;;;4.45;2.50;;;;;;;;;;5051613;28;20063;-67
2023/07/17 13:09:56;;;;;;;4.22;2.50;;;;;;;;;;5053912;28;20105;-67
2023/07/17 13:12:23;;;;;;;6.65;2.15;;;;;;;;;;5052423;28;20369;-67
2023/07/17 13:14:48;;;;;;;2.50;2.30;;;;;;;;;;5053513;28;20020;-68
2023/07/17 13:17:13;;;;;;;4.90;2.50;;;;;;;;;;5052229;28;20029;-67
2023/07/17 13:19:38;;;;;;;10.70;4.60;;;;;;;;;;5053732;28;20104;-67
2023/07/17 13:22:04;;;;;;;5.83;2.73;;;;;;;;;;5051621;28;20029;-68
2023/07/17 13:24:29;;;;;;;14.73;4.13;;;;;;;;;;5053841;28;20028;-68
2023/07/17 13:26:54;;;;;;;12.33;3.43;;;;;;;;;;5052282;28;20507;-67
2023/07/17 13:29:19;;;;;;;7.05;3.75;;;;;;;;;;5053076;28;20953;-68
2023/07/17 13:31:45;;;;;;;9.83;3.13;;;;;;;;;;5052269;28;20049;-68
2023/07/17 13:34:10;;;;;;;9.35;3.78;;;;;;;;;;5053154;28;20020;-68
2023/07/17 13:36:35;;;;;;;6.37;3.13;;;;;;;;;;5051416;28;20056;-68
2023/07/17 13:39:01;;;;;;;9.50;3.90;;;;;;;;;;5053354;28;20482;-68
2023/07/17 13:41:46;;;;;;;15.05;4.15;;;;;;;;;;5052129;28;20585;-70
2023/07/17 13:44:13;;;;;;;6.28;3.58;;;;;;;;;;5052788;28;20067;-67
2023/07/17 13:46:39;;;;;;;6.13;3.30;;;;;;;;;;5066180;28;20067;-68
2023/07/17 13:49:04;;;;;;;8.18;4.15;;;;;;;;;;5071629;28;20020;-67
2023/07/17 13:51:29;;;;;;;8.75;3.72;;;;;;;;;;5070389;28;20028;-67
2023/07/17 13:53:55;;;;;;;6.38;4.00;;;;;;;;;;5073028;28;20028;-67
2023/07/17 13:56:20;;;;;;;5.17;3.70;;;;;;;;;;5071681;28;20441;-67
2023/07/17 13:58:45;;;;;;;5.67;3.03;;;;;;;;;;5072667;28;21005;-67
2023/07/17 14:01:10;;;;;;;8.57;3.50;;;;;;;;;;5071345;28;20016;-67
2023/07/17 14:03:35;;;;;;;9.33;4.67;;;;;;;;;;5072793;28;20021;-67
2023/07/17 14:06:00;;;;;;;7.63;3.85;;;;;;;;;;5070833;28;20430;-66
2023/07/17 14:08:26;;;;;;;7.22;3.72;;;;;;;;;;5069398;28;20013;-67
2023/07/17 14:10:51;;;;;;;8.57;3.85;;;;;;;;;;5067153;28;20488;-67
2023/07/17 14:13:16;;;;;;;9.07;4.23;;;;;;;;;;5050376;28;20114;-68
2023/07/17 14:15:41;;;;;;;6.60;3.57;;;;;;;;;;5052737;28;20043;-68
2023/07/17 14:18:06;;;;;;;5.72;3.65;;;;;;;;;;5050455;28;20128;-67
2023/07/17 14:20:31;;;;;;;12.33;5.50;;;;;;;;;;5052183;28;20025;-65
2023/07/17 14:22:57;;;;;;;17.30;6.13;;;;;;;;;;5050816;28;20451;-66
2023/07/17 14:25:23;;;;;;;17.13;5.75;;;;;;;;;;5052701;28;20021;-65
2023/07/17 14:27:49;;;;;;;23.55;6.57;;;;;;;;;;5050741;28;20116;-65
2023/07/17 14:30:14;;;;;;;13.50;5.75;;;;;;;;;;5052186;28;20467;-65